sensor_id;sensor_type;location;lat;lon;timestamp;temperature;humidity
67586;SHT31;55785;47.946;20.540;2024-01-30T00:01:23;-2.57;90.41
67586;SHT31;55785;47.946;20.540;2024-01-30T00:03:48;-2.49;90.30
67586;SHT31;55785;47.946;20.540;2024-01-30T00:06:14;-2.47;90.35
67586;SHT31;55785;47.946;20.540;2024-01-30T00:08:39;-2.44;90.42
67586;SHT31;55785;47.946;20.540;2024-01-30T00:11:04;-2.42;90.47
67586;SHT31;55785;47.946;20.540;2024-01-30T00:13:30;-2.40;90.41
67586;SHT31;55785;47.946;20.540;2024-01-30T00:15:55;-2.36;90.17
67586;SHT31;55785;47.946;20.540;2024-01-30T00:18:20;-2.41;90.14
67586;SHT31;55785;47.946;20.540;2024-01-30T00:20:46;-2.48;90.23
67586;SHT31;55785;47.946;20.540;2024-01-30T00:23:11;-2.51;90.22
67586;SHT31;55785;47.946;20.540;2024-01-30T00:25:36;-2.49;90.19
67586;SHT31;55785;47.946;20.540;2024-01-30T00:28:02;-2.45;90.24
67586;SHT31;55785;47.946;20.540;2024-01-30T00:30:27;-2.48;90.24
67586;SHT31;55785;47.946;20.540;2024-01-30T00:32:53;-2.48;90.28
67586;SHT31;55785;47.946;20.540;2024-01-30T00:35:18;-2.44;90.35
67586;SHT31;55785;47.946;20.540;2024-01-30T00:37:44;-2.49;90.28
67586;SHT31;55785;47.946;20.540;2024-01-30T00:40:09;-2.44;90.22
67586;SHT31;55785;47.946;20.540;2024-01-30T00:42:35;-2.48;90.14
67586;SHT31;55785;47.946;20.540;2024-01-30T00:45:00;-2.42;89.98
67586;SHT31;55785;47.946;20.540;2024-01-30T00:47:25;-2.41;89.93
67586;SHT31;55785;47.946;20.540;2024-01-30T00:49:51;-2.42;89.97
67586;SHT31;55785;47.946;20.540;2024-01-30T00:52:16;-2.44;89.92
67586;SHT31;55785;47.946;20.540;2024-01-30T00:54:41;-2.45;89.97
67586;SHT31;55785;47.946;20.540;2024-01-30T00:57:07;-2.42;89.99
67586;SHT31;55785;47.946;20.540;2024-01-30T00:59:33;-2.42;89.88
67586;SHT31;55785;47.946;20.540;2024-01-30T01:01:58;-2.48;89.92
67586;SHT31;55785;47.946;20.540;2024-01-30T01:04:23;-2.47;89.86
67586;SHT31;55785;47.946;20.540;2024-01-30T01:06:49;-2.49;89.90
67586;SHT31;55785;47.946;20.540;2024-01-30T01:09:14;-2.52;89.93
67586;SHT31;55785;47.946;20.540;2024-01-30T01:11:39;-2.57;90.01
67586;SHT31;55785;47.946;20.540;2024-01-30T01:14:05;-2.55;90.00
67586;SHT31;55785;47.946;20.540;2024-01-30T01:16:30;-2.55;89.97
67586;SHT31;55785;47.946;20.540;2024-01-30T01:18:55;-2.59;89.96
67586;SHT31;55785;47.946;20.540;2024-01-30T01:21:21;-2.61;89.90
67586;SHT31;55785;47.946;20.540;2024-01-30T01:23:46;-2.61;89.92
67586;SHT31;55785;47.946;20.540;2024-01-30T01:26:11;-2.65;89.75
67586;SHT31;55785;47.946;20.540;2024-01-30T01:28:40;-2.69;89.91
67586;SHT31;55785;47.946;20.540;2024-01-30T01:31:05;-2.75;89.91
67586;SHT31;55785;47.946;20.540;2024-01-30T01:33:32;-2.75;89.99
67586;SHT31;55785;47.946;20.540;2024-01-30T01:35:57;-2.73;90.08
67586;SHT31;55785;47.946;20.540;2024-01-30T01:38:22;-2.68;90.17
67586;SHT31;55785;47.946;20.540;2024-01-30T01:40:48;-2.68;90.10
67586;SHT31;55785;47.946;20.540;2024-01-30T01:43:13;-2.73;89.99
67586;SHT31;55785;47.946;20.540;2024-01-30T01:45:38;-2.79;89.87
67586;SHT31;55785;47.946;20.540;2024-01-30T01:48:04;-2.78;89.82
67586;SHT31;55785;47.946;20.540;2024-01-30T01:50:30;-2.80;89.80
67586;SHT31;55785;47.946;20.540;2024-01-30T01:52:55;-2.86;89.96
67586;SHT31;55785;47.946;20.540;2024-01-30T01:55:21;-2.83;89.90
67586;SHT31;55785;47.946;20.540;2024-01-30T01:57:47;-2.78;89.95
67586;SHT31;55785;47.946;20.540;2024-01-30T02:00:13;-2.78;89.88
67586;SHT31;55785;47.946;20.540;2024-01-30T02:02:39;-2.76;89.94
67586;SHT31;55785;47.946;20.540;2024-01-30T02:05:05;-2.78;89.83
67586;SHT31;55785;47.946;20.540;2024-01-30T02:07:30;-2.80;89.79
67586;SHT31;55785;47.946;20.540;2024-01-30T02:09:56;-2.82;89.52
67586;SHT31;55785;47.946;20.540;2024-01-30T02:12:21;-2.83;89.61
67586;SHT31;55785;47.946;20.540;2024-01-30T02:14:47;-2.88;89.40
67586;SHT31;55785;47.946;20.540;2024-01-30T02:17:13;-2.82;89.27
67586;SHT31;55785;47.946;20.540;2024-01-30T02:19:39;-2.92;89.36
67586;SHT31;55785;47.946;20.540;2024-01-30T02:22:05;-2.96;89.47
67586;SHT31;55785;47.946;20.540;2024-01-30T02:24:30;-2.99;89.65
67586;SHT31;55785;47.946;20.540;2024-01-30T02:26:56;-2.90;89.84
67586;SHT31;55785;47.946;20.540;2024-01-30T02:29:21;-2.88;89.90
67586;SHT31;55785;47.946;20.540;2024-01-30T02:31:47;-2.83;89.86
67586;SHT31;55785;47.946;20.540;2024-01-30T02:34:12;-2.85;89.58
67586;SHT31;55785;47.946;20.540;2024-01-30T02:36:38;-2.83;89.40
67586;SHT31;55785;47.946;20.540;2024-01-30T02:39:03;-2.83;89.41
67586;SHT31;55785;47.946;20.540;2024-01-30T02:41:29;-2.89;89.45
67586;SHT31;55785;47.946;20.540;2024-01-30T02:43:54;-2.82;89.36
67586;SHT31;55785;47.946;20.540;2024-01-30T02:46:19;-2.80;89.23
67586;SHT31;55785;47.946;20.540;2024-01-30T02:48:45;-2.80;89.17
67586;SHT31;55785;47.946;20.540;2024-01-30T02:51:10;-2.85;89.27
67586;SHT31;55785;47.946;20.540;2024-01-30T02:53:35;-2.80;89.21
67586;SHT31;55785;47.946;20.540;2024-01-30T02:56:02;-2.89;89.08
67586;SHT31;55785;47.946;20.540;2024-01-30T02:58:28;-2.96;89.12
67586;SHT31;55785;47.946;20.540;2024-01-30T03:00:53;-2.96;89.22
67586;SHT31;55785;47.946;20.540;2024-01-30T03:03:18;-2.93;89.17
67586;SHT31;55785;47.946;20.540;2024-01-30T03:05:44;-3.00;89.25
67586;SHT31;55785;47.946;20.540;2024-01-30T03:08:09;-3.01;89.42
67586;SHT31;55785;47.946;20.540;2024-01-30T03:10:34;-3.06;89.39
67586;SHT31;55785;47.946;20.540;2024-01-30T03:13:00;-3.03;89.43
67586;SHT31;55785;47.946;20.540;2024-01-30T03:15:25;-3.03;89.52
67586;SHT31;55785;47.946;20.540;2024-01-30T03:17:50;-3.04;89.49
67586;SHT31;55785;47.946;20.540;2024-01-30T03:20:16;-3.07;89.59
67586;SHT31;55785;47.946;20.540;2024-01-30T03:22:41;-3.11;89.51
67586;SHT31;55785;47.946;20.540;2024-01-30T03:25:07;-3.11;89.56
67586;SHT31;55785;47.946;20.540;2024-01-30T03:27:32;-3.09;89.41
67586;SHT31;55785;47.946;20.540;2024-01-30T03:29:57;-3.13;89.31
67586;SHT31;55785;47.946;20.540;2024-01-30T03:32:23;-3.13;89.37
67586;SHT31;55785;47.946;20.540;2024-01-30T03:34:48;-3.13;89.52
67586;SHT31;55785;47.946;20.540;2024-01-30T03:37:13;-3.13;89.46
67586;SHT31;55785;47.946;20.540;2024-01-30T03:39:39;-3.10;89.38
67586;SHT31;55785;47.946;20.540;2024-01-30T03:42:04;-3.14;89.41
67586;SHT31;55785;47.946;20.540;2024-01-30T03:44:29;-3.09;89.41
67586;SHT31;55785;47.946;20.540;2024-01-30T03:46:55;-3.07;89.25
67586;SHT31;55785;47.946;20.540;2024-01-30T03:49:20;-3.00;89.13
67586;SHT31;55785;47.946;20.540;2024-01-30T03:51:45;-3.01;89.00
67586;SHT31;55785;47.946;20.540;2024-01-30T03:54:11;-3.10;89.15
67586;SHT31;55785;47.946;20.540;2024-01-30T03:56:36;-3.09;89.17
67586;SHT31;55785;47.946;20.540;2024-01-30T03:59:01;-3.07;89.22
67586;SHT31;55785;47.946;20.540;2024-01-30T04:01:27;-3.09;89.19
67586;SHT31;55785;47.946;20.540;2024-01-30T04:03:52;-3.09;89.31
67586;SHT31;55785;47.946;20.540;2024-01-30T04:06:17;-3.04;89.41
67586;SHT31;55785;47.946;20.540;2024-01-30T04:08:43;-3.07;89.26
67586;SHT31;55785;47.946;20.540;2024-01-30T04:11:08;-3.03;89.28
67586;SHT31;55785;47.946;20.540;2024-01-30T04:13:33;-3.01;89.16
67586;SHT31;55785;47.946;20.540;2024-01-30T04:16:02;-3.00;89.09
67586;SHT31;55785;47.946;20.540;2024-01-30T04:18:28;-3.09;88.98
67586;SHT31;55785;47.946;20.540;2024-01-30T04:20:54;-3.17;88.97
67586;SHT31;55785;47.946;20.540;2024-01-30T04:23:19;-3.20;88.97
67586;SHT31;55785;47.946;20.540;2024-01-30T04:25:44;-3.20;89.01
67586;SHT31;55785;47.946;20.540;2024-01-30T04:28:10;-3.21;89.13
67586;SHT31;55785;47.946;20.540;2024-01-30T04:30:35;-3.21;89.23
67586;SHT31;55785;47.946;20.540;2024-01-30T04:33:00;-3.23;89.27
67586;SHT31;55785;47.946;20.540;2024-01-30T04:35:26;-3.23;89.30
67586;SHT31;55785;47.946;20.540;2024-01-30T04:37:54;-3.24;89.33
67586;SHT31;55785;47.946;20.540;2024-01-30T04:40:20;-3.26;89.29
67586;SHT31;55785;47.946;20.540;2024-01-30T04:42:46;-3.33;89.27
67586;SHT31;55785;47.946;20.540;2024-01-30T04:45:11;-3.33;89.37
67586;SHT31;55785;47.946;20.540;2024-01-30T04:47:37;-3.27;89.28
67586;SHT31;55785;47.946;20.540;2024-01-30T04:50:02;-3.28;89.29
67586;SHT31;55785;47.946;20.540;2024-01-30T04:52:28;-3.28;89.30
67586;SHT31;55785;47.946;20.540;2024-01-30T04:54:53;-3.33;89.41
67586;SHT31;55785;47.946;20.540;2024-01-30T04:57:18;-3.30;89.61
67586;SHT31;55785;47.946;20.540;2024-01-30T04:59:43;-3.30;89.48
67586;SHT31;55785;47.946;20.540;2024-01-30T05:02:09;-3.34;89.44
67586;SHT31;55785;47.946;20.540;2024-01-30T05:04:34;-3.40;89.49
67586;SHT31;55785;47.946;20.540;2024-01-30T05:06:59;-3.41;89.45
67586;SHT31;55785;47.946;20.540;2024-01-30T05:09:25;-3.41;89.38
67586;SHT31;55785;47.946;20.540;2024-01-30T05:11:50;-3.43;89.55
67586;SHT31;55785;47.946;20.540;2024-01-30T05:14:15;-3.44;89.60
67586;SHT31;55785;47.946;20.540;2024-01-30T05:16:41;-3.41;89.57
67586;SHT31;55785;47.946;20.540;2024-01-30T05:19:06;-3.38;89.54
67586;SHT31;55785;47.946;20.540;2024-01-30T05:21:31;-3.43;89.51
67586;SHT31;55785;47.946;20.540;2024-01-30T05:23:57;-3.45;89.70
67586;SHT31;55785;47.946;20.540;2024-01-30T05:26:22;-3.44;89.58
67586;SHT31;55785;47.946;20.540;2024-01-30T05:28:47;-3.45;89.51
67586;SHT31;55785;47.946;20.540;2024-01-30T05:31:13;-3.48;89.56
67586;SHT31;55785;47.946;20.540;2024-01-30T05:33:38;-3.54;89.60
67586;SHT31;55785;47.946;20.540;2024-01-30T05:36:04;-3.58;89.78
67586;SHT31;55785;47.946;20.540;2024-01-30T05:38:29;-3.62;89.79
67586;SHT31;55785;47.946;20.540;2024-01-30T05:40:55;-3.68;89.83
67586;SHT31;55785;47.946;20.540;2024-01-30T05:43:20;-3.68;89.78
67586;SHT31;55785;47.946;20.540;2024-01-30T05:45:45;-3.68;89.84
67586;SHT31;55785;47.946;20.540;2024-01-30T05:48:10;-3.64;89.71
67586;SHT31;55785;47.946;20.540;2024-01-30T05:50:37;-3.65;89.64
67586;SHT31;55785;47.946;20.540;2024-01-30T05:53:02;-3.59;89.56
67586;SHT31;55785;47.946;20.540;2024-01-30T05:55:28;-3.64;89.61
67586;SHT31;55785;47.946;20.540;2024-01-30T05:57:53;-3.61;89.66
67586;SHT31;55785;47.946;20.540;2024-01-30T06:00:19;-3.66;89.69
67586;SHT31;55785;47.946;20.540;2024-01-30T06:02:44;-3.66;89.68
67586;SHT31;55785;47.946;20.540;2024-01-30T06:05:09;-3.68;89.83
67586;SHT31;55785;47.946;20.540;2024-01-30T06:07:35;-3.71;90.01
67586;SHT31;55785;47.946;20.540;2024-01-30T06:10:00;-3.72;89.92
67586;SHT31;55785;47.946;20.540;2024-01-30T06:12:25;-3.75;89.82
67586;SHT31;55785;47.946;20.540;2024-01-30T06:14:51;-3.62;89.51
67586;SHT31;55785;47.946;20.540;2024-01-30T06:17:16;-3.59;89.35
67586;SHT31;55785;47.946;20.540;2024-01-30T06:19:41;-3.58;89.32
67586;SHT31;55785;47.946;20.540;2024-01-30T06:22:07;-3.59;89.48
67586;SHT31;55785;47.946;20.540;2024-01-30T06:24:32;-3.55;89.52
67586;SHT31;55785;47.946;20.540;2024-01-30T06:26:57;-3.54;89.73
67586;SHT31;55785;47.946;20.540;2024-01-30T06:29:23;-3.55;89.85
67586;SHT31;55785;47.946;20.540;2024-01-30T06:31:48;-3.64;89.73
67586;SHT31;55785;47.946;20.540;2024-01-30T06:34:14;-3.58;89.61
67586;SHT31;55785;47.946;20.540;2024-01-30T06:36:39;-3.58;89.43
67586;SHT31;55785;47.946;20.540;2024-01-30T06:39:04;-3.59;89.47
67586;SHT31;55785;47.946;20.540;2024-01-30T06:41:30;-3.55;89.51
67586;SHT31;55785;47.946;20.540;2024-01-30T06:43:55;-3.54;89.64
67586;SHT31;55785;47.946;20.540;2024-01-30T06:46:21;-3.51;89.81
67586;SHT31;55785;47.946;20.540;2024-01-30T06:48:46;-3.51;89.77
67586;SHT31;55785;47.946;20.540;2024-01-30T06:51:12;-3.50;89.72
67586;SHT31;55785;47.946;20.540;2024-01-30T06:53:37;-3.45;89.73
67586;SHT31;55785;47.946;20.540;2024-01-30T06:56:02;-3.44;89.68
67586;SHT31;55785;47.946;20.540;2024-01-30T06:58:28;-3.47;89.63
67586;SHT31;55785;47.946;20.540;2024-01-30T07:00:54;-3.48;89.74
67586;SHT31;55785;47.946;20.540;2024-01-30T07:03:20;-3.47;89.98
67586;SHT31;55785;47.946;20.540;2024-01-30T07:05:45;-3.37;90.06
67586;SHT31;55785;47.946;20.540;2024-01-30T07:08:10;-3.31;90.12
67586;SHT31;55785;47.946;20.540;2024-01-30T07:10:36;-3.21;90.00
67586;SHT31;55785;47.946;20.540;2024-01-30T07:13:01;-3.18;89.87
67586;SHT31;55785;47.946;20.540;2024-01-30T07:15:26;-3.16;89.84
67586;SHT31;55785;47.946;20.540;2024-01-30T07:17:52;-3.17;89.83
67586;SHT31;55785;47.946;20.540;2024-01-30T07:20:17;-3.11;89.87
67586;SHT31;55785;47.946;20.540;2024-01-30T07:22:43;-2.89;89.80
67586;SHT31;55785;47.946;20.540;2024-01-30T07:25:08;-2.75;89.39
67586;SHT31;55785;47.946;20.540;2024-01-30T07:27:33;-2.73;89.31
67586;SHT31;55785;47.946;20.540;2024-01-30T07:29:59;-2.69;89.29
67586;SHT31;55785;47.946;20.540;2024-01-30T07:32:24;-2.59;89.28
67586;SHT31;55785;47.946;20.540;2024-01-30T07:34:49;-2.47;89.19
67586;SHT31;55785;47.946;20.540;2024-01-30T07:37:15;-2.41;89.22
67586;SHT31;55785;47.946;20.540;2024-01-30T07:39:40;-2.34;89.02
67586;SHT31;55785;47.946;20.540;2024-01-30T07:42:06;-2.21;88.96
67586;SHT31;55785;47.946;20.540;2024-01-30T07:44:31;-2.19;88.75
67586;SHT31;55785;47.946;20.540;2024-01-30T07:46:56;-2.11;88.86
67586;SHT31;55785;47.946;20.540;2024-01-30T07:49:22;-2.01;88.73
67586;SHT31;55785;47.946;20.540;2024-01-30T07:51:47;-1.91;88.69
67586;SHT31;55785;47.946;20.540;2024-01-30T07:54:12;-1.80;88.58
67586;SHT31;55785;47.946;20.540;2024-01-30T07:56:38;-1.70;88.42
67586;SHT31;55785;47.946;20.540;2024-01-30T07:59:03;-1.62;88.25
67586;SHT31;55785;47.946;20.540;2024-01-30T08:01:28;-1.58;87.91
67586;SHT31;55785;47.946;20.540;2024-01-30T08:03:54;-1.51;87.67
67586;SHT31;55785;47.946;20.540;2024-01-30T08:06:19;-1.44;87.50
67586;SHT31;55785;47.946;20.540;2024-01-30T08:08:44;-1.32;87.65
67586;SHT31;55785;47.946;20.540;2024-01-30T08:11:10;-1.22;87.35
67586;SHT31;55785;47.946;20.540;2024-01-30T08:13:35;-1.11;87.22
67586;SHT31;55785;47.946;20.540;2024-01-30T08:16:00;-1.03;86.86
67586;SHT31;55785;47.946;20.540;2024-01-30T08:18:26;-0.97;86.71
67586;SHT31;55785;47.946;20.540;2024-01-30T08:20:51;-0.87;86.48
67586;SHT31;55785;47.946;20.540;2024-01-30T08:23:16;-0.80;86.14
67586;SHT31;55785;47.946;20.540;2024-01-30T08:25:42;-0.73;85.89
67586;SHT31;55785;47.946;20.540;2024-01-30T08:28:07;-0.63;86.08
67586;SHT31;55785;47.946;20.540;2024-01-30T08:30:32;-0.52;86.80
67586;SHT31;55785;47.946;20.540;2024-01-30T08:32:58;-0.45;86.57
67586;SHT31;55785;47.946;20.540;2024-01-30T08:35:23;-0.34;86.68
67586;SHT31;55785;47.946;20.540;2024-01-30T08:37:48;-0.15;87.23
67586;SHT31;55785;47.946;20.540;2024-01-30T08:40:14;0.00;87.82
67586;SHT31;55785;47.946;20.540;2024-01-30T08:42:39;0.14;87.09
67586;SHT31;55785;47.946;20.540;2024-01-30T08:45:05;0.30;86.47
67586;SHT31;55785;47.946;20.540;2024-01-30T08:47:30;0.54;87.10
67586;SHT31;55785;47.946;20.540;2024-01-30T08:49:56;0.61;86.71
67586;SHT31;55785;47.946;20.540;2024-01-30T08:52:21;0.66;86.25
67586;SHT31;55785;47.946;20.540;2024-01-30T08:54:46;0.72;85.67
67586;SHT31;55785;47.946;20.540;2024-01-30T08:57:12;0.81;85.87
67586;SHT31;55785;47.946;20.540;2024-01-30T08:59:37;0.79;85.13
67586;SHT31;55785;47.946;20.540;2024-01-30T09:02:02;0.82;85.05
67586;SHT31;55785;47.946;20.540;2024-01-30T09:04:28;0.84;84.95
67586;SHT31;55785;47.946;20.540;2024-01-30T09:06:53;0.96;85.26
67586;SHT31;55785;47.946;20.540;2024-01-30T09:09:18;1.13;85.72
67586;SHT31;55785;47.946;20.540;2024-01-30T09:11:44;1.33;86.14
67586;SHT31;55785;47.946;20.540;2024-01-30T09:14:09;1.50;85.15
67586;SHT31;55785;47.946;20.540;2024-01-30T09:16:35;1.71;84.69
67586;SHT31;55785;47.946;20.540;2024-01-30T09:19:00;1.72;83.53
67586;SHT31;55785;47.946;20.540;2024-01-30T09:21:25;1.72;83.47
67586;SHT31;55785;47.946;20.540;2024-01-30T09:23:54;1.72;83.43
67586;SHT31;55785;47.946;20.540;2024-01-30T09:26:19;1.81;83.34
67586;SHT31;55785;47.946;20.540;2024-01-30T09:28:44;1.86;83.05
67586;SHT31;55785;47.946;20.540;2024-01-30T09:31:10;2.05;84.13
67586;SHT31;55785;47.946;20.540;2024-01-30T09:33:35;2.32;82.76
67586;SHT31;55785;47.946;20.540;2024-01-30T09:36:01;2.64;79.43
67586;SHT31;55785;47.946;20.540;2024-01-30T09:38:26;2.90;80.27
67586;SHT31;55785;47.946;20.540;2024-01-30T09:40:54;3.12;76.49
67586;SHT31;55785;47.946;20.540;2024-01-30T09:43:22;3.22;76.63
67586;SHT31;55785;47.946;20.540;2024-01-30T09:45:48;3.35;76.24
67586;SHT31;55785;47.946;20.540;2024-01-30T09:48:15;3.42;76.02
67586;SHT31;55785;47.946;20.540;2024-01-30T09:50:40;3.56;72.74
67586;SHT31;55785;47.946;20.540;2024-01-30T09:53:07;3.59;72.74
67586;SHT31;55785;47.946;20.540;2024-01-30T09:55:35;3.67;73.47
67586;SHT31;55785;47.946;20.540;2024-01-30T09:58:01;3.83;74.16
67586;SHT31;55785;47.946;20.540;2024-01-30T10:00:26;3.93;73.71
67586;SHT31;55785;47.946;20.540;2024-01-30T10:02:52;3.95;73.45
67586;SHT31;55785;47.946;20.540;2024-01-30T10:05:18;4.01;73.61
67586;SHT31;55785;47.946;20.540;2024-01-30T10:07:54;4.11;74.52
67586;SHT31;55785;47.946;20.540;2024-01-30T10:10:22;4.19;73.07
67586;SHT31;55785;47.946;20.540;2024-01-30T10:12:47;4.25;72.84
67586;SHT31;55785;47.946;20.540;2024-01-30T10:15:13;4.26;74.37
67586;SHT31;55785;47.946;20.540;2024-01-30T10:17:39;4.29;70.96
67586;SHT31;55785;47.946;20.540;2024-01-30T10:20:05;4.34;72.98
67586;SHT31;55785;47.946;20.540;2024-01-30T10:22:30;4.34;72.26
67586;SHT31;55785;47.946;20.540;2024-01-30T10:24:56;4.44;73.02
67586;SHT31;55785;47.946;20.540;2024-01-30T10:27:27;4.45;73.04
67586;SHT31;55785;47.946;20.540;2024-01-30T10:29:53;4.50;72.84
67586;SHT31;55785;47.946;20.540;2024-01-30T10:32:19;4.52;72.54
67586;SHT31;55785;47.946;20.540;2024-01-30T10:34:45;4.55;72.97
67586;SHT31;55785;47.946;20.540;2024-01-30T10:37:11;4.60;72.16
67586;SHT31;55785;47.946;20.540;2024-01-30T10:39:41;4.52;70.45
67586;SHT31;55785;47.946;20.540;2024-01-30T10:42:11;4.55;71.40
67586;SHT31;55785;47.946;20.540;2024-01-30T10:47:28;4.79;72.13
67586;SHT31;55785;47.946;20.540;2024-01-30T10:49:54;4.80;70.49
67586;SHT31;55785;47.946;20.540;2024-01-30T10:52:20;4.86;73.02
67586;SHT31;55785;47.946;20.540;2024-01-30T10:54:46;5.10;71.72
67586;SHT31;55785;47.946;20.540;2024-01-30T10:57:13;4.87;70.38
67586;SHT31;55785;47.946;20.540;2024-01-30T10:59:41;4.73;70.89
67586;SHT31;55785;47.946;20.540;2024-01-30T11:02:07;4.81;70.98
67586;SHT31;55785;47.946;20.540;2024-01-30T11:04:36;4.93;71.65
67586;SHT31;55785;47.946;20.540;2024-01-30T11:07:02;4.90;69.66
67586;SHT31;55785;47.946;20.540;2024-01-30T11:09:29;4.97;71.00
67586;SHT31;55785;47.946;20.540;2024-01-30T11:11:58;4.94;70.10
67586;SHT31;55785;47.946;20.540;2024-01-30T11:14:24;5.17;70.25
67586;SHT31;55785;47.946;20.540;2024-01-30T11:16:49;5.38;71.20
67586;SHT31;55785;47.946;20.540;2024-01-30T11:19:15;5.63;71.80
67586;SHT31;55785;47.946;20.540;2024-01-30T11:21:43;5.62;70.01
67586;SHT31;55785;47.946;20.540;2024-01-30T11:24:08;5.51;69.86
67586;SHT31;55785;47.946;20.540;2024-01-30T11:26:34;6.01;68.65
67586;SHT31;55785;47.946;20.540;2024-01-30T11:29:03;6.48;66.45
67586;SHT31;55785;47.946;20.540;2024-01-30T11:31:28;7.00;65.02
67586;SHT31;55785;47.946;20.540;2024-01-30T11:33:55;7.10;64.57
67586;SHT31;55785;47.946;20.540;2024-01-30T11:36:25;7.48;64.04
67586;SHT31;55785;47.946;20.540;2024-01-30T11:38:50;7.52;62.50
67586;SHT31;55785;47.946;20.540;2024-01-30T11:41:16;7.62;63.29
67586;SHT31;55785;47.946;20.540;2024-01-30T11:43:41;7.65;63.24
67586;SHT31;55785;47.946;20.540;2024-01-30T11:46:07;7.74;62.12
67586;SHT31;55785;47.946;20.540;2024-01-30T11:48:32;8.02;60.48
67586;SHT31;55785;47.946;20.540;2024-01-30T11:50:58;7.67;61.27
67586;SHT31;55785;47.946;20.540;2024-01-30T11:53:23;7.69;62.07
67586;SHT31;55785;47.946;20.540;2024-01-30T11:55:51;7.62;61.58
67586;SHT31;55785;47.946;20.540;2024-01-30T11:58:17;7.58;62.01
67586;SHT31;55785;47.946;20.540;2024-01-30T12:00:42;7.55;62.04
67586;SHT31;55785;47.946;20.540;2024-01-30T12:03:07;7.28;62.50
67586;SHT31;55785;47.946;20.540;2024-01-30T12:05:33;7.40;62.54
67586;SHT31;55785;47.946;20.540;2024-01-30T12:07:58;7.57;62.57
67586;SHT31;55785;47.946;20.540;2024-01-30T12:10:24;7.74;64.61
67586;SHT31;55785;47.946;20.540;2024-01-30T12:12:49;7.88;61.81
67586;SHT31;55785;47.946;20.540;2024-01-30T12:15:16;8.06;60.37
67586;SHT31;55785;47.946;20.540;2024-01-30T12:17:41;8.19;59.94
67586;SHT31;55785;47.946;20.540;2024-01-30T12:20:12;8.13;60.08
67586;SHT31;55785;47.946;20.540;2024-01-30T12:22:42;8.30;58.41
67586;SHT31;55785;47.946;20.540;2024-01-30T12:25:12;8.26;58.06
67586;SHT31;55785;47.946;20.540;2024-01-30T12:27:38;8.26;57.46
67586;SHT31;55785;47.946;20.540;2024-01-30T12:30:21;7.95;59.39
67586;SHT31;55785;47.946;20.540;2024-01-30T12:32:49;7.98;58.94
67586;SHT31;55785;47.946;20.540;2024-01-30T12:35:16;7.68;59.79
67586;SHT31;55785;47.946;20.540;2024-01-30T12:37:46;7.31;59.76
67586;SHT31;55785;47.946;20.540;2024-01-30T12:40:12;6.95;61.20
67586;SHT31;55785;47.946;20.540;2024-01-30T12:42:38;6.65;61.39
67586;SHT31;55785;47.946;20.540;2024-01-30T12:45:04;6.61;61.74
67586;SHT31;55785;47.946;20.540;2024-01-30T12:47:30;6.53;62.32
67586;SHT31;55785;47.946;20.540;2024-01-30T12:49:55;6.44;62.90
67586;SHT31;55785;47.946;20.540;2024-01-30T12:52:21;6.45;62.31
67586;SHT31;55785;47.946;20.540;2024-01-30T12:54:47;6.45;62.82
67586;SHT31;55785;47.946;20.540;2024-01-30T12:57:13;6.48;64.68
67586;SHT31;55785;47.946;20.540;2024-01-30T12:59:38;6.25;63.62
67586;SHT31;55785;47.946;20.540;2024-01-30T13:02:04;6.14;64.68
67586;SHT31;55785;47.946;20.540;2024-01-30T13:04:29;6.01;64.12
67586;SHT31;55785;47.946;20.540;2024-01-30T13:06:55;6.06;63.31
67586;SHT31;55785;47.946;20.540;2024-01-30T13:09:20;6.14;64.07
67586;SHT31;55785;47.946;20.540;2024-01-30T13:11:46;6.03;63.57
67586;SHT31;55785;47.946;20.540;2024-01-30T13:14:11;6.10;63.72
67586;SHT31;55785;47.946;20.540;2024-01-30T13:16:36;6.03;64.15
67586;SHT31;55785;47.946;20.540;2024-01-30T13:19:02;6.01;63.87
67586;SHT31;55785;47.946;20.540;2024-01-30T13:21:28;6.00;64.83
67586;SHT31;55785;47.946;20.540;2024-01-30T13:23:53;6.06;65.17
67586;SHT31;55785;47.946;20.540;2024-01-30T13:26:20;6.06;65.42
67586;SHT31;55785;47.946;20.540;2024-01-30T13:28:45;6.16;66.10
67586;SHT31;55785;47.946;20.540;2024-01-30T13:31:11;6.17;65.12
67586;SHT31;55785;47.946;20.540;2024-01-30T13:33:36;6.07;66.09
67586;SHT31;55785;47.946;20.540;2024-01-30T13:36:01;6.04;64.86
67586;SHT31;55785;47.946;20.540;2024-01-30T13:38:27;6.13;64.31
67586;SHT31;55785;47.946;20.540;2024-01-30T13:40:52;6.16;63.92
67586;SHT31;55785;47.946;20.540;2024-01-30T13:43:17;6.13;65.26
67586;SHT31;55785;47.946;20.540;2024-01-30T13:45:43;6.11;64.87
67586;SHT31;55785;47.946;20.540;2024-01-30T13:48:08;6.11;64.71
67586;SHT31;55785;47.946;20.540;2024-01-30T13:50:34;6.10;64.34
67586;SHT31;55785;47.946;20.540;2024-01-30T13:52:59;6.10;65.43
67586;SHT31;55785;47.946;20.540;2024-01-30T13:55:25;6.00;63.71
67586;SHT31;55785;47.946;20.540;2024-01-30T13:57:50;6.04;64.04
67586;SHT31;55785;47.946;20.540;2024-01-30T14:00:16;5.97;63.84
67586;SHT31;55785;47.946;20.540;2024-01-30T14:02:42;5.94;63.82
67586;SHT31;55785;47.946;20.540;2024-01-30T14:05:08;5.89;64.37
67586;SHT31;55785;47.946;20.540;2024-01-30T14:07:35;5.80;64.52
67586;SHT31;55785;47.946;20.540;2024-01-30T14:10:00;5.73;64.87
67586;SHT31;55785;47.946;20.540;2024-01-30T14:12:26;5.62;65.54
67586;SHT31;55785;47.946;20.540;2024-01-30T14:14:51;5.46;65.39
67586;SHT31;55785;47.946;20.540;2024-01-30T14:17:17;5.38;65.50
67586;SHT31;55785;47.946;20.540;2024-01-30T14:19:42;5.32;65.76
67586;SHT31;55785;47.946;20.540;2024-01-30T14:22:07;5.14;66.46
67586;SHT31;55785;47.946;20.540;2024-01-30T14:24:33;4.98;66.68
67586;SHT31;55785;47.946;20.540;2024-01-30T14:26:58;4.81;67.00
67586;SHT31;55785;47.946;20.540;2024-01-30T14:29:23;4.84;67.58
67586;SHT31;55785;47.946;20.540;2024-01-30T14:31:49;4.67;67.83
67586;SHT31;55785;47.946;20.540;2024-01-30T14:34:14;4.60;68.35
67586;SHT31;55785;47.946;20.540;2024-01-30T14:36:39;4.56;68.94
67586;SHT31;55785;47.946;20.540;2024-01-30T14:39:05;4.57;68.93
67586;SHT31;55785;47.946;20.540;2024-01-30T14:41:30;4.53;69.38
67586;SHT31;55785;47.946;20.540;2024-01-30T14:43:55;4.46;69.72
67586;SHT31;55785;47.946;20.540;2024-01-30T14:46:21;4.46;70.04
67586;SHT31;55785;47.946;20.540;2024-01-30T14:48:47;4.52;70.20
67586;SHT31;55785;47.946;20.540;2024-01-30T14:51:12;4.50;70.40
67586;SHT31;55785;47.946;20.540;2024-01-30T14:53:38;4.45;71.67
67586;SHT31;55785;47.946;20.540;2024-01-30T14:56:03;4.32;73.77
67586;SHT31;55785;47.946;20.540;2024-01-30T14:58:29;4.12;74.89
67586;SHT31;55785;47.946;20.540;2024-01-30T15:00:54;4.01;75.12
67586;SHT31;55785;47.946;20.540;2024-01-30T15:03:20;3.94;75.76
67586;SHT31;55785;47.946;20.540;2024-01-30T15:05:45;3.86;75.93
67586;SHT31;55785;47.946;20.540;2024-01-30T15:08:10;3.84;76.28
67586;SHT31;55785;47.946;20.540;2024-01-30T15:10:36;3.76;76.42
67586;SHT31;55785;47.946;20.540;2024-01-30T15:13:01;3.63;76.89
67586;SHT31;55785;47.946;20.540;2024-01-30T15:15:26;3.60;76.87